Harrah, Washington
Current Conditions -  °F | °C
As of 1:53 AM on Wednesday 22 Oct 2014 (Local Time) from KYKM Reporting Station
Broken Clouds Broken Clouds  
Wind Chill: 44°   Ceiling: 7500
Heat Index: 46°   Visibility: 10mi
Dew Point: 41°   Wind: 5mph
Humidity: 83%   Direction: 320°NW
Pressure: 29.88"   Gusts: NA
Location:  46.4°N, 120.54°W
Report Text: KYKM 220853Z AUTO 32004KT 10SM BKN075 08/05 A2988 RMK AO2 SLP119 T00780050 58009
Loading
Personal Weather Stations






























Interactive Weather Map
Tropical Storm Tracking
New forecast layout! Learn more

10-Day Weather Forecast

Advertisements
Track Severe Weather on mobile